createdAt,value
2023-05-22T00:00:36.325Z,1007.03
2023-05-22T00:01:36.297Z,1007.05
2023-05-22T00:02:36.416Z,1007.03
2023-05-22T00:03:36.621Z,1007.06
2023-05-22T00:04:36.240Z,1007.04
2023-05-22T00:05:36.261Z,1007.05
2023-05-22T00:06:36.204Z,1007.06
2023-05-22T00:07:36.209Z,1007.04
2023-05-22T00:08:36.188Z,1007.05
2023-05-22T00:09:36.185Z,1007.04
2023-05-22T00:10:36.164Z,1007.04
2023-05-22T00:11:36.172Z,1007.05
2023-05-22T00:12:36.139Z,1007.03
2023-05-22T00:13:36.148Z,1007.04
2023-05-22T00:14:36.131Z,1007.01
2023-05-22T00:15:36.137Z,1007.00
2023-05-22T00:16:36.171Z,1007.01
2023-05-22T00:17:36.111Z,1006.98
2023-05-22T00:18:36.080Z,1006.96
2023-05-22T00:19:36.185Z,1006.95
2023-05-22T00:20:36.073Z,1006.94
2023-05-22T00:21:36.036Z,1006.94
2023-05-22T00:22:36.037Z,1006.96
2023-05-22T00:23:36.050Z,1006.96
2023-05-22T00:24:36.003Z,1006.98
2023-05-22T00:25:35.995Z,1006.96
2023-05-22T00:26:35.988Z,1006.97
2023-05-22T00:27:35.989Z,1006.92
2023-05-22T00:28:35.998Z,1006.94
2023-05-22T00:29:35.954Z,1006.91
2023-05-22T00:30:35.935Z,1006.91
2023-05-22T00:31:35.929Z,1006.92
2023-05-22T00:32:35.966Z,1006.92
2023-05-22T00:33:35.903Z,1006.91
2023-05-22T00:34:35.953Z,1006.90
2023-05-22T00:35:35.881Z,1006.88
2023-05-22T00:36:35.876Z,1006.89
2023-05-22T00:37:35.873Z,1006.89
2023-05-22T00:38:35.868Z,1006.88
2023-05-22T00:39:35.840Z,1006.91
2023-05-22T00:40:35.847Z,1006.91
2023-05-22T00:41:35.837Z,1006.91
2023-05-22T00:42:35.824Z,1006.88
2023-05-22T00:43:35.800Z,1006.90
2023-05-22T00:44:35.788Z,1006.94
2023-05-22T00:45:35.772Z,1006.92
2023-05-22T00:46:35.800Z,1006.93
2023-05-22T00:47:35.780Z,1006.90
2023-05-22T00:48:35.765Z,1006.89
2023-05-22T00:49:35.729Z,1006.92
2023-05-22T00:50:35.753Z,1006.94
2023-05-22T00:51:35.717Z,1006.95
2023-05-22T00:52:35.709Z,1006.93
2023-05-22T00:53:35.688Z,1006.95
2023-05-22T00:54:35.689Z,1006.95
2023-05-22T00:55:35.691Z,1006.94
2023-05-22T00:56:35.657Z,1006.93
2023-05-22T00:57:35.638Z,1006.93
2023-05-22T00:58:35.630Z,1006.92
2023-05-22T00:59:35.622Z,1006.91
2023-05-22T01:00:35.622Z,1006.93
2023-05-22T01:01:35.628Z,1006.93
2023-05-22T01:02:35.652Z,1006.95
2023-05-22T01:03:35.638Z,1006.93
2023-05-22T01:04:35.579Z,1006.95
2023-05-22T01:05:35.573Z,1006.96
2023-05-22T01:06:35.548Z,1006.94
2023-05-22T01:07:35.536Z,1006.94
2023-05-22T01:08:35.521Z,1006.98
2023-05-22T01:09:35.516Z,1006.97
2023-05-22T01:10:35.499Z,1006.98
2023-05-22T01:11:35.493Z,1006.98
2023-05-22T01:12:35.471Z,1006.96
2023-05-22T01:13:35.464Z,1006.97
2023-05-22T01:14:35.474Z,1006.92
2023-05-22T01:15:35.445Z,1006.95
2023-05-22T01:16:35.477Z,1006.97
2023-05-22T01:17:35.473Z,1006.91
2023-05-22T01:18:35.414Z,1006.88
2023-05-22T01:19:35.469Z,1006.91
2023-05-22T01:20:35.471Z,1006.92
2023-05-22T01:21:35.372Z,1006.89
2023-05-22T01:22:35.387Z,1006.87
2023-05-22T01:23:35.368Z,1006.90
2023-05-22T01:24:35.345Z,1006.89
2023-05-22T01:25:35.334Z,1006.89
2023-05-22T01:26:35.353Z,1006.90
2023-05-22T01:27:35.426Z,1006.89
2023-05-22T01:28:35.334Z,1006.91
2023-05-22T01:29:35.305Z,1006.89
2023-05-22T01:30:35.309Z,1006.89
2023-05-22T01:31:35.260Z,1006.86
2023-05-22T01:32:35.367Z,1006.91
2023-05-22T01:33:35.306Z,1006.86
2023-05-22T01:34:35.227Z,1006.90
2023-05-22T01:35:35.235Z,1006.90
2023-05-22T01:36:35.223Z,1006.92
2023-05-22T01:37:35.199Z,1006.91
2023-05-22T01:38:35.230Z,1006.93
2023-05-22T01:39:35.176Z,1006.93
2023-05-22T01:40:35.157Z,1006.93
2023-05-22T01:41:35.163Z,1006.95
2023-05-22T01:42:35.153Z,1006.98
2023-05-22T01:43:35.150Z,1006.97
2023-05-22T01:44:35.129Z,1006.98
2023-05-22T01:45:35.137Z,1007.00
2023-05-22T01:46:35.097Z,1007.00
2023-05-22T01:47:35.143Z,1007.01
2023-05-22T01:48:35.082Z,1007.01
2023-05-22T01:49:35.076Z,1007.01
2023-05-22T01:50:35.066Z,1007.01
2023-05-22T01:51:35.049Z,1006.98
2023-05-22T01:52:35.039Z,1006.97
2023-05-22T01:53:35.019Z,1006.93
2023-05-22T01:54:35.004Z,1006.96
2023-05-22T01:55:35.044Z,1006.93
2023-05-22T01:56:35.002Z,1006.94
2023-05-22T01:57:34.980Z,1006.96
2023-05-22T01:58:34.978Z,1006.93
2023-05-22T01:59:34.956Z,1006.99
2023-05-22T02:00:34.954Z,1006.96
2023-05-22T02:01:34.959Z,1006.93
2023-05-22T02:02:34.967Z,1006.92
2023-05-22T02:03:35.024Z,1006.95
2023-05-22T02:04:34.935Z,1006.94
2023-05-22T02:05:34.895Z,1006.92
2023-05-22T02:06:34.878Z,1006.89
2023-05-22T02:07:34.867Z,1006.89
2023-05-22T02:08:34.857Z,1006.91
2023-05-22T02:09:34.844Z,1006.92
2023-05-22T02:10:34.846Z,1006.91
2023-05-22T02:11:34.828Z,1006.97
2023-05-22T02:12:34.810Z,1006.96
2023-05-22T02:13:34.805Z,1006.95
2023-05-22T02:14:34.804Z,1006.99
2023-05-22T02:15:34.818Z,1006.97
2023-05-22T02:16:34.772Z,1006.95
2023-05-22T02:17:34.825Z,1006.97
2023-05-22T02:18:34.745Z,1006.94
2023-05-22T02:19:34.869Z,1006.97
2023-05-22T02:20:34.737Z,1006.91
2023-05-22T02:21:34.719Z,1006.92
2023-05-22T02:22:34.699Z,1006.92
2023-05-22T02:23:34.694Z,1006.92
2023-05-22T02:24:34.686Z,1006.93
2023-05-22T02:25:34.677Z,1006.94
2023-05-22T02:26:34.658Z,1006.91
2023-05-22T02:27:34.643Z,1006.91
2023-05-22T02:28:34.658Z,1006.91
2023-05-22T02:29:34.641Z,1006.95
2023-05-22T02:30:34.636Z,1006.91
2023-05-22T02:31:34.653Z,1006.96
2023-05-22T02:32:34.623Z,1006.96
2023-05-22T02:33:34.605Z,1006.96
2023-05-22T02:34:34.585Z,1006.97
2023-05-22T02:35:34.575Z,1006.98
2023-05-22T02:36:34.544Z,1006.94
2023-05-22T02:37:34.558Z,1006.95
2023-05-22T02:38:34.572Z,1006.96
2023-05-22T02:39:34.528Z,1006.91
2023-05-22T02:40:34.516Z,1006.95
2023-05-22T02:41:34.499Z,1006.91
2023-05-22T02:42:34.486Z,1006.87
2023-05-22T02:43:34.484Z,1006.85
2023-05-22T02:44:34.465Z,1006.86
2023-05-22T02:45:34.456Z,1006.87
2023-05-22T02:46:34.450Z,1006.85
2023-05-22T02:47:34.484Z,1006.91
2023-05-22T02:48:34.411Z,1006.87
2023-05-22T02:49:34.404Z,1006.85
2023-05-22T02:50:34.401Z,1006.87
2023-05-22T02:51:34.386Z,1006.85
2023-05-22T02:52:34.378Z,1006.87
2023-05-22T02:53:34.367Z,1006.86
2023-05-22T02:54:34.339Z,1006.85
2023-05-22T02:55:34.337Z,1006.85
2023-05-22T02:56:34.348Z,1006.85
2023-05-22T02:57:34.324Z,1006.84
2023-05-22T02:58:34.302Z,1006.88
2023-05-22T02:59:34.290Z,1006.88
2023-05-22T03:00:34.277Z,1006.86
2023-05-22T03:01:34.342Z,1006.89
2023-05-22T03:02:34.360Z,1006.85
2023-05-22T03:03:34.356Z,1006.80
2023-05-22T03:04:34.226Z,1006.84
2023-05-22T03:05:34.247Z,1006.80
2023-05-22T03:06:34.286Z,1006.79
2023-05-22T03:07:34.208Z,1006.79
2023-05-22T03:08:34.196Z,1006.79
2023-05-22T03:09:34.174Z,1006.83
2023-05-22T03:10:34.190Z,1006.82
2023-05-22T03:11:34.163Z,1006.79
2023-05-22T03:12:34.145Z,1006.85
2023-05-22T03:13:34.135Z,1006.80
2023-05-22T03:14:34.119Z,1006.84
2023-05-22T03:15:34.135Z,1006.82
2023-05-22T03:16:34.143Z,1006.82
2023-05-22T03:17:34.136Z,1006.78
2023-05-22T03:18:34.099Z,1006.78
2023-05-22T03:19:34.116Z,1006.79
2023-05-22T03:20:34.316Z,1006.74
2023-05-22T03:21:34.060Z,1006.78
2023-05-22T03:22:34.039Z,1006.77
2023-05-22T03:23:34.055Z,1006.75
2023-05-22T03:24:34.016Z,1006.77
2023-05-22T03:25:34.176Z,1006.78
2023-05-22T03:26:33.994Z,1006.79
2023-05-22T03:27:33.977Z,1006.80
2023-05-22T03:28:34.012Z,1006.77
2023-05-22T03:29:33.968Z,1006.78
2023-05-22T03:30:33.968Z,1006.78
2023-05-22T03:31:33.952Z,1006.78
2023-05-22T03:32:33.970Z,1006.76
2023-05-22T03:33:33.993Z,1006.75
2023-05-22T03:34:33.924Z,1006.77
2023-05-22T03:35:33.912Z,1006.75
2023-05-22T03:36:33.880Z,1006.76
2023-05-22T03:37:33.871Z,1006.74
2023-05-22T03:38:33.859Z,1006.78
2023-05-22T03:39:33.868Z,1006.80
2023-05-22T03:40:33.829Z,1006.80
2023-05-22T03:41:33.870Z,1006.83
2023-05-22T03:42:33.819Z,1006.80
2023-05-22T03:43:33.815Z,1006.81
2023-05-22T03:44:33.828Z,1006.82
2023-05-22T03:45:33.849Z,1006.85
2023-05-22T03:46:33.795Z,1006.87
2023-05-22T03:47:33.824Z,1006.89
2023-05-22T03:48:33.758Z,1006.87
2023-05-22T03:49:33.756Z,1006.87
2023-05-22T03:50:33.729Z,1006.89
2023-05-22T03:51:33.718Z,1006.88
2023-05-22T03:52:33.715Z,1006.90
2023-05-22T03:53:33.706Z,1006.90
2023-05-22T03:54:33.685Z,1006.91
2023-05-22T03:55:33.701Z,1006.90
2023-05-22T03:56:33.663Z,1006.93
2023-05-22T03:57:33.669Z,1006.92
2023-05-22T03:58:33.653Z,1006.93
2023-05-22T03:59:33.650Z,1006.94
2023-05-22T04:00:33.647Z,1006.90
2023-05-22T04:01:33.628Z,1006.92
2023-05-22T04:02:33.665Z,1006.95
2023-05-22T04:03:33.683Z,1006.92
2023-05-22T04:04:33.577Z,1006.91
2023-05-22T04:05:33.632Z,1006.93
2023-05-22T04:06:33.539Z,1006.91
2023-05-22T04:07:33.560Z,1006.95
2023-05-22T04:08:33.520Z,1006.94
2023-05-22T04:09:33.519Z,1006.99
2023-05-22T04:10:33.512Z,1006.98
2023-05-22T04:11:33.498Z,1007.01
2023-05-22T04:12:33.502Z,1007.05
2023-05-22T04:13:33.480Z,1007.05
2023-05-22T04:14:33.456Z,1007.08
2023-05-22T04:15:33.490Z,1007.03
2023-05-22T04:16:33.493Z,1007.02
2023-05-22T04:17:33.749Z,1007.02
2023-05-22T04:18:33.421Z,1007.04
2023-05-22T04:19:33.490Z,1007.03
2023-05-22T04:20:33.396Z,1007.02
2023-05-22T04:21:33.456Z,1007.06
2023-05-22T04:22:33.370Z,1007.07
2023-05-22T04:23:33.370Z,1007.08
2023-05-22T04:24:33.341Z,1007.06
2023-05-22T04:25:33.351Z,1007.10
2023-05-22T04:26:33.386Z,1007.10
2023-05-22T04:27:33.313Z,1007.08
2023-05-22T04:28:33.302Z,1007.08
2023-05-22T04:29:33.336Z,1007.08
2023-05-22T04:30:33.292Z,1007.09
2023-05-22T04:31:33.376Z,1007.06
2023-05-22T04:32:33.289Z,1007.10
2023-05-22T04:33:33.242Z,1007.14
2023-05-22T04:34:33.246Z,1007.17
2023-05-22T04:35:33.241Z,1007.17
2023-05-22T04:36:33.283Z,1007.19
2023-05-22T04:37:33.214Z,1007.21
2023-05-22T04:38:33.196Z,1007.23
2023-05-22T04:39:33.208Z,1007.21
2023-05-22T04:40:33.168Z,1007.24
2023-05-22T04:41:33.172Z,1007.23
2023-05-22T04:42:33.148Z,1007.23
2023-05-22T04:43:33.154Z,1007.29
2023-05-22T04:44:33.129Z,1007.25
2023-05-22T04:45:33.192Z,1007.25
2023-05-22T04:46:33.172Z,1007.25
2023-05-22T04:47:33.133Z,1007.28
2023-05-22T04:48:33.077Z,1007.28
2023-05-22T04:49:33.113Z,1007.30
2023-05-22T04:50:33.138Z,1007.30
2023-05-22T04:51:33.159Z,1007.27
2023-05-22T04:52:33.038Z,1007.29
2023-05-22T04:53:33.027Z,1007.31
2023-05-22T04:54:33.017Z,1007.34
2023-05-22T04:55:33.006Z,1007.35
2023-05-22T04:56:36.784Z,1007.34
2023-05-22T04:57:32.978Z,1007.28
2023-05-22T04:58:32.987Z,1007.33
2023-05-22T04:59:32.966Z,1007.33
2023-05-22T05:00:32.983Z,1007.34
2023-05-22T05:01:33.602Z,1007.33
2023-05-22T05:02:32.987Z,1007.28
2023-05-22T05:03:32.954Z,1007.31
2023-05-22T05:04:32.898Z,1007.33
2023-05-22T05:05:32.893Z,1007.31
2023-05-22T05:06:32.878Z,1007.32
2023-05-22T05:07:32.889Z,1007.33
2023-05-22T05:08:32.856Z,1007.32
2023-05-22T05:09:32.844Z,1007.30
2023-05-22T05:10:32.829Z,1007.33
2023-05-22T05:11:32.853Z,1007.35
2023-05-22T05:12:32.890Z,1007.36
2023-05-22T05:13:32.835Z,1007.36
2023-05-22T05:14:32.789Z,1007.38
2023-05-22T05:15:32.789Z,1007.36
2023-05-22T05:16:32.837Z,1007.39
2023-05-22T05:17:32.780Z,1007.43
2023-05-22T05:18:32.745Z,1007.42
2023-05-22T05:19:34.779Z,1007.37
2023-05-22T05:20:32.726Z,1007.41
2023-05-22T05:21:32.718Z,1007.42
2023-05-22T05:22:32.710Z,1007.38
2023-05-22T05:23:32.707Z,1007.39
2023-05-22T05:24:32.674Z,1007.40
2023-05-22T05:25:32.794Z,1007.34
2023-05-22T05:26:32.670Z,1007.38
2023-05-22T05:27:32.665Z,1007.41
2023-05-22T05:28:32.636Z,1007.37
2023-05-22T05:29:32.625Z,1007.43
2023-05-22T05:30:32.631Z,1007.41
2023-05-22T05:31:32.627Z,1007.41
2023-05-22T05:32:32.629Z,1007.41
2023-05-22T05:33:32.597Z,1007.40
2023-05-22T05:34:32.594Z,1007.41
2023-05-22T05:35:32.564Z,1007.38
2023-05-22T05:36:32.568Z,1007.39
2023-05-22T05:37:32.584Z,1007.34
2023-05-22T05:38:32.522Z,1007.37
2023-05-22T05:39:32.520Z,1007.39
2023-05-22T05:40:32.525Z,1007.30
2023-05-22T05:41:32.501Z,1007.36
2023-05-22T05:42:32.477Z,1007.35
2023-05-22T05:43:32.483Z,1007.40
2023-05-22T05:44:32.476Z,1007.42
2023-05-22T05:45:32.469Z,1007.39
2023-05-22T05:46:32.528Z,1007.39
2023-05-22T05:47:32.488Z,1007.41
2023-05-22T05:48:32.427Z,1007.42
2023-05-22T05:49:34.184Z,1007.39
2023-05-22T05:50:32.411Z,1007.41
2023-05-22T05:51:32.384Z,1007.43
2023-05-22T05:52:32.380Z,1007.39
2023-05-22T05:53:32.396Z,1007.43
2023-05-22T05:54:32.352Z,1007.44
2023-05-22T05:55:33.892Z,1007.45
2023-05-22T05:56:32.339Z,1007.46
2023-05-22T05:57:32.327Z,1007.48
2023-05-22T05:58:32.335Z,1007.45
2023-05-22T05:59:32.304Z,1007.50
2023-05-22T06:00:32.287Z,1007.44
2023-05-22T06:01:32.281Z,1007.46
2023-05-22T06:02:32.339Z,1007.48
2023-05-22T06:03:32.366Z,1007.47
2023-05-22T06:04:32.248Z,1007.52
2023-05-22T06:05:32.280Z,1007.49
2023-05-22T06:06:32.215Z,1007.51
2023-05-22T06:07:32.231Z,1007.52
2023-05-22T06:08:32.278Z,1007.52
2023-05-22T06:09:32.192Z,1007.53
2023-05-22T06:10:32.172Z,1007.53
2023-05-22T06:11:32.171Z,1007.47
2023-05-22T06:12:32.213Z,1007.50
2023-05-22T06:13:32.169Z,1007.55
2023-05-22T06:14:32.142Z,1007.54
2023-05-22T06:15:32.174Z,1007.53
2023-05-22T06:16:32.186Z,1007.53
2023-05-22T06:17:32.134Z,1007.57
2023-05-22T06:18:32.096Z,1007.58
2023-05-22T06:19:32.224Z,1007.62
2023-05-22T06:20:32.073Z,1007.61
2023-05-22T06:21:32.054Z,1007.61
2023-05-22T06:22:32.040Z,1007.62
2023-05-22T06:23:32.184Z,1007.66
2023-05-22T06:24:32.029Z,1007.61
2023-05-22T06:25:32.010Z,1007.61
2023-05-22T06:26:32.039Z,1007.61
2023-05-22T06:27:32.102Z,1007.62
2023-05-22T06:28:31.998Z,1007.59
2023-05-22T06:29:32.060Z,1007.63
2023-05-22T06:30:40.149Z,1007.62
2023-05-22T06:31:32.949Z,1007.63
2023-05-22T06:32:32.162Z,1007.65
2023-05-22T06:33:31.952Z,1007.65
2023-05-22T06:34:31.944Z,1007.70
2023-05-22T06:35:31.909Z,1007.62
2023-05-22T06:36:31.896Z,1007.63
2023-05-22T06:37:31.885Z,1007.64
2023-05-22T06:38:31.992Z,1007.66
2023-05-22T06:39:32.214Z,1007.66
2023-05-22T06:40:31.871Z,1007.66
2023-05-22T06:41:31.829Z,1007.64
2023-05-22T06:42:31.846Z,1007.63
2023-05-22T06:43:31.813Z,1007.66
2023-05-22T06:44:31.817Z,1007.67
2023-05-22T06:45:31.919Z,1007.65
2023-05-22T06:46:31.849Z,1007.71
2023-05-22T06:47:31.792Z,1007.68
2023-05-22T06:48:31.844Z,1007.69
2023-05-22T06:49:31.761Z,1007.69
2023-05-22T06:50:31.756Z,1007.73
2023-05-22T06:51:31.732Z,1007.73
2023-05-22T06:52:31.722Z,1007.72
2023-05-22T06:53:31.702Z,1007.71
2023-05-22T06:54:31.697Z,1007.71
2023-05-22T06:55:31.698Z,1007.72
2023-05-22T06:56:31.699Z,1007.70
2023-05-22T06:57:31.671Z,1007.69
2023-05-22T06:58:31.683Z,1007.72
2023-05-22T06:59:31.771Z,1007.74
2023-05-22T07:00:31.646Z,1007.75
2023-05-22T07:01:31.686Z,1007.75
2023-05-22T07:02:31.632Z,1007.75
2023-05-22T07:03:31.628Z,1007.77
2023-05-22T07:04:31.625Z,1007.81
2023-05-22T07:05:31.709Z,1007.80
2023-05-22T07:06:31.584Z,1007.79
2023-05-22T07:07:31.612Z,1007.84
2023-05-22T07:08:31.567Z,1007.81
2023-05-22T07:09:31.550Z,1007.82
2023-05-22T07:10:31.531Z,1007.85
2023-05-22T07:11:31.517Z,1007.85
2023-05-22T07:12:31.507Z,1007.87
2023-05-22T07:13:31.503Z,1007.90
2023-05-22T07:14:31.509Z,1007.83
2023-05-22T07:15:31.468Z,1007.90
2023-05-22T07:16:31.559Z,1007.82
2023-05-22T07:17:31.535Z,1007.84
2023-05-22T07:18:31.435Z,1007.82
2023-05-22T07:19:31.493Z,1007.87
2023-05-22T07:20:31.418Z,1007.89
2023-05-22T07:21:31.418Z,1007.87
2023-05-22T07:22:31.409Z,1007.88
2023-05-22T07:23:31.386Z,1007.87
2023-05-22T07:24:31.376Z,1007.91
2023-05-22T07:25:31.355Z,1007.95
2023-05-22T07:26:31.940Z,1007.97
2023-05-22T07:27:31.332Z,1007.93
2023-05-22T07:28:31.337Z,1007.91
2023-05-22T07:29:31.309Z,1007.92
2023-05-22T07:30:31.307Z,1007.95
2023-05-22T07:31:31.368Z,1007.93
2023-05-22T07:32:31.340Z,1007.96
2023-05-22T07:33:31.271Z,1007.95
2023-05-22T07:34:31.257Z,1007.93
2023-05-22T07:35:31.250Z,1007.92
2023-05-22T07:36:31.251Z,1007.95
2023-05-22T07:37:31.240Z,1007.93
2023-05-22T07:38:31.219Z,1007.95
2023-05-22T07:39:31.204Z,1007.97
2023-05-22T07:40:31.199Z,1007.98
2023-05-22T07:41:31.194Z,1007.98
2023-05-22T07:42:31.193Z,1007.94
2023-05-22T07:43:31.176Z,1007.94
2023-05-22T07:44:31.162Z,1007.91
2023-05-22T07:45:31.150Z,1007.89
2023-05-22T07:46:31.219Z,1007.93
2023-05-22T07:47:31.155Z,1007.90
2023-05-22T07:48:31.105Z,1007.91
2023-05-22T07:49:31.089Z,1007.87
2023-05-22T07:50:31.084Z,1007.93
2023-05-22T07:51:31.081Z,1007.93
2023-05-22T07:52:31.083Z,1007.94
2023-05-22T07:53:31.049Z,1007.96
2023-05-22T07:54:31.047Z,1007.91
2023-05-22T07:55:31.031Z,1007.94
2023-05-22T07:56:31.040Z,1007.90
2023-05-22T07:57:31.046Z,1007.92
2023-05-22T07:58:30.995Z,1007.93
2023-05-22T07:59:30.986Z,1007.93
2023-05-22T08:00:30.988Z,1007.96
2023-05-22T08:01:30.962Z,1007.99
2023-05-22T08:02:31.062Z,1007.99
2023-05-22T08:03:31.003Z,1007.97
2023-05-22T08:04:31.080Z,1007.98
2023-05-22T08:05:30.954Z,1007.95
2023-05-22T08:06:30.925Z,1007.94
2023-05-22T08:07:30.897Z,1007.94
2023-05-22T08:08:31.954Z,1007.95
2023-05-22T08:09:30.873Z,1008.01
2023-05-22T08:10:46.400Z,1007.95
2023-05-22T08:11:31.858Z,1007.98
2023-05-22T08:12:30.840Z,1007.90
2023-05-22T08:13:30.882Z,1007.88
2023-05-22T08:14:30.829Z,1007.89
2023-05-22T08:15:30.820Z,1007.96
2023-05-22T08:16:30.815Z,1007.98
2023-05-22T08:17:30.826Z,1007.90
2023-05-22T08:18:30.825Z,1007.92
2023-05-22T08:19:30.828Z,1007.93
2023-05-22T08:20:30.876Z,1007.93
2023-05-22T08:21:30.748Z,1007.91
2023-05-22T08:22:30.734Z,1007.96
2023-05-22T08:23:30.725Z,1007.97
2023-05-22T08:24:30.745Z,1007.96
2023-05-22T08:25:30.706Z,1007.97
2023-05-22T08:26:32.232Z,1007.95
2023-05-22T08:27:30.674Z,1007.96
2023-05-22T08:28:30.680Z,1007.90
2023-05-22T08:29:30.667Z,1007.93
2023-05-22T08:30:30.640Z,1007.91
2023-05-22T08:31:30.717Z,1007.88
2023-05-22T08:32:31.440Z,1007.87
2023-05-22T08:33:30.620Z,1007.90
2023-05-22T08:34:30.602Z,1007.89
2023-05-22T08:35:30.666Z,1007.86
2023-05-22T08:36:30.585Z,1007.86
2023-05-22T08:37:30.580Z,1007.88
2023-05-22T08:38:30.558Z,1007.87
2023-05-22T08:39:30.543Z,1007.91
2023-05-22T08:40:30.529Z,1007.88
2023-05-22T08:41:30.604Z,1007.94
2023-05-22T08:42:30.513Z,1007.95
2023-05-22T08:43:30.558Z,1007.90
2023-05-22T08:44:30.490Z,1007.90
2023-05-22T08:45:30.497Z,1007.91
2023-05-22T08:46:30.480Z,1007.91
2023-05-22T08:47:30.503Z,1007.90
2023-05-22T08:48:30.460Z,1007.92
2023-05-22T08:49:30.438Z,1007.90
2023-05-22T08:50:30.437Z,1007.91
2023-05-22T08:51:30.413Z,1007.94
2023-05-22T08:52:30.408Z,1007.94
2023-05-22T08:53:30.400Z,1007.86
2023-05-22T08:54:30.381Z,1007.89
2023-05-22T08:55:30.386Z,1007.89
2023-05-22T08:56:31.030Z,1007.88
2023-05-22T08:57:30.372Z,1007.93
2023-05-22T08:58:30.368Z,1007.84
2023-05-22T08:59:30.334Z,1007.85
2023-05-22T09:00:30.328Z,1007.85
2023-05-22T09:01:30.345Z,1007.88
2023-05-22T09:02:30.324Z,1007.86
2023-05-22T09:03:30.545Z,1007.96
2023-05-22T09:04:30.283Z,1007.92
2023-05-22T09:05:30.274Z,1007.87
2023-05-22T09:06:30.282Z,1007.91
2023-05-22T09:07:30.253Z,1007.95
2023-05-22T09:08:30.249Z,1007.87
2023-05-22T09:09:30.262Z,1007.94
2023-05-22T09:10:30.212Z,1007.96
2023-05-22T09:11:30.223Z,1007.97
2023-05-22T09:12:30.200Z,1007.97
2023-05-22T09:13:30.339Z,1007.99
2023-05-22T09:14:30.203Z,1008.00
2023-05-22T09:15:30.265Z,1007.88
2023-05-22T09:16:30.182Z,1007.90
2023-05-22T09:17:30.263Z,1007.93
2023-05-22T09:18:30.267Z,1007.86
2023-05-22T09:19:30.205Z,1007.83
2023-05-22T09:20:30.167Z,1007.90
2023-05-22T09:21:30.816Z,1007.86
2023-05-22T09:22:30.138Z,1007.88
2023-05-22T09:23:30.159Z,1007.87
2023-05-22T09:24:30.125Z,1007.83
2023-05-22T09:25:30.063Z,1007.82
2023-05-22T09:26:30.052Z,1007.82
2023-05-22T09:27:30.044Z,1007.95
2023-05-22T09:28:30.055Z,1007.79
2023-05-22T09:29:30.069Z,1007.83
2023-05-22T09:30:30.045Z,1007.92
2023-05-22T09:31:30.152Z,1007.81
2023-05-22T09:32:30.066Z,1007.77
2023-05-22T09:33:29.998Z,1007.79
2023-05-22T09:34:29.977Z,1007.79
2023-05-22T09:35:29.961Z,1007.87
2023-05-22T09:36:29.955Z,1007.80
2023-05-22T09:37:29.959Z,1007.82
2023-05-22T09:38:29.944Z,1007.86
2023-05-22T09:39:29.911Z,1007.86
2023-05-22T09:40:29.906Z,1007.92
2023-05-22T09:41:29.906Z,1007.82
2023-05-22T09:42:29.907Z,1007.87
2023-05-22T09:43:29.885Z,1007.82
2023-05-22T09:44:29.870Z,1007.80
2023-05-22T09:45:29.845Z,1007.78
2023-05-22T09:46:29.927Z,1007.79
2023-05-22T09:47:29.866Z,1007.84
2023-05-22T09:48:29.863Z,1007.85
2023-05-22T09:49:29.824Z,1007.81
2023-05-22T09:50:29.819Z,1007.80
2023-05-22T09:51:29.801Z,1007.84
2023-05-22T09:52:29.780Z,1007.79
2023-05-22T09:53:29.789Z,1007.88
2023-05-22T09:54:29.766Z,1007.84
2023-05-22T09:55:29.754Z,1007.84
2023-05-22T09:56:38.676Z,1007.86
2023-05-22T09:57:30.731Z,1007.85
2023-05-22T09:58:29.734Z,1007.83
2023-05-22T09:59:29.699Z,1007.83
2023-05-22T10:00:29.687Z,1007.83
2023-05-22T10:01:29.697Z,1007.84
2023-05-22T10:02:29.725Z,1007.92
2023-05-22T10:03:29.656Z,1007.88
2023-05-22T10:04:29.710Z,1007.88
2023-05-22T10:05:29.671Z,1007.86
2023-05-22T10:06:29.637Z,1007.88
2023-05-22T10:07:29.629Z,1007.93
2023-05-22T10:08:29.606Z,1007.87
2023-05-22T10:09:29.597Z,1007.90
2023-05-22T10:10:29.589Z,1007.92
2023-05-22T10:11:30.371Z,1007.88
2023-05-22T10:12:29.580Z,1007.89
2023-05-22T10:13:29.548Z,1007.93
2023-05-22T10:14:30.910Z,1007.92
2023-05-22T10:15:29.570Z,1007.91
2023-05-22T10:16:29.599Z,1007.94
2023-05-22T10:17:29.566Z,1007.88
2023-05-22T10:18:29.516Z,1007.93
2023-05-22T10:19:29.559Z,1007.96
2023-05-22T10:20:29.491Z,1007.92
2023-05-22T10:21:29.462Z,1007.98
2023-05-22T10:22:29.461Z,1007.93
2023-05-22T10:23:29.464Z,1007.91
2023-05-22T10:24:29.435Z,1007.97
2023-05-22T10:25:29.422Z,1007.93
2023-05-22T10:26:29.412Z,1007.99
2023-05-22T10:27:29.401Z,1007.90
2023-05-22T10:28:29.401Z,1007.89
2023-05-22T10:29:29.379Z,1007.92
2023-05-22T10:30:29.387Z,1007.84
2023-05-22T10:31:29.355Z,1007.89
2023-05-22T10:32:29.379Z,1007.86
2023-05-22T10:33:29.366Z,1007.90
2023-05-22T10:34:29.332Z,1007.87
2023-05-22T10:35:29.323Z,1007.86
2023-05-22T10:36:29.314Z,1007.92
2023-05-22T10:37:29.311Z,1008.06
2023-05-22T10:38:29.394Z,1008.06
2023-05-22T10:39:29.326Z,1007.99
2023-05-22T10:40:29.375Z,1007.97
2023-05-22T10:41:29.252Z,1008.05
2023-05-22T10:42:29.266Z,1008.01
2023-05-22T10:43:29.238Z,1007.98
2023-05-22T10:44:29.258Z,1007.79
2023-05-22T10:45:29.245Z,1007.75
2023-05-22T10:46:29.313Z,1007.83
2023-05-22T10:47:29.221Z,1007.96
2023-05-22T10:48:29.178Z,1007.78
2023-05-22T10:49:29.178Z,1007.78
2023-05-22T10:50:29.169Z,1007.74
2023-05-22T10:51:29.147Z,1007.76
2023-05-22T10:52:29.140Z,1007.77
2023-05-22T10:53:29.147Z,1007.74
2023-05-22T10:54:29.222Z,1007.80
2023-05-22T10:55:29.114Z,1007.79
2023-05-22T10:56:29.187Z,1007.78
2023-05-22T10:57:29.081Z,1007.86
2023-05-22T10:58:29.101Z,1007.91
2023-05-22T10:59:29.057Z,1007.93
2023-05-22T11:00:29.092Z,1008.02
2023-05-22T11:01:29.080Z,1007.78
2023-05-22T11:02:29.329Z,1007.77
2023-05-22T11:03:29.103Z,1007.76
2023-05-22T11:04:29.099Z,1007.78
2023-05-22T11:05:29.008Z,1007.75
2023-05-22T11:06:28.986Z,1007.80
2023-05-22T11:07:28.976Z,1007.99
2023-05-22T11:08:29.003Z,1007.79
2023-05-22T11:09:29.071Z,1007.98
2023-05-22T11:10:28.967Z,1007.74
2023-05-22T11:11:28.934Z,1007.75
2023-05-22T11:12:28.994Z,1007.75
2023-05-22T11:13:29.628Z,1007.72
2023-05-22T11:14:28.940Z,1007.87
2023-05-22T11:15:28.927Z,1007.71
2023-05-22T11:16:28.909Z,1007.65
2023-05-22T11:17:28.933Z,1007.70
2023-05-22T11:18:28.902Z,1007.70
2023-05-22T11:19:28.911Z,1007.72
2023-05-22T11:20:28.857Z,1007.87
2023-05-22T11:21:28.833Z,1007.68
2023-05-22T11:22:28.830Z,1007.73
2023-05-22T11:23:28.827Z,1007.76
2023-05-22T11:24:28.809Z,1007.84
2023-05-22T11:25:28.804Z,1007.87
2023-05-22T11:26:28.785Z,1007.73
2023-05-22T11:27:28.785Z,1007.70
2023-05-22T11:28:28.838Z,1007.85
2023-05-22T11:29:29.593Z,1007.80
2023-05-22T11:30:28.754Z,1007.82
2023-05-22T11:31:28.819Z,1007.73
2023-05-22T11:32:28.758Z,1007.76
2023-05-22T11:33:28.732Z,1007.75
2023-05-22T11:34:28.734Z,1007.72
2023-05-22T11:35:28.688Z,1007.72
2023-05-22T11:36:28.679Z,1007.70
2023-05-22T11:37:28.692Z,1007.64
2023-05-22T11:38:28.754Z,1007.59
2023-05-22T11:39:28.693Z,1007.63
2023-05-22T11:40:28.724Z,1007.59
2023-05-22T11:41:29.076Z,1007.54
2023-05-22T11:42:28.649Z,1007.40
2023-05-22T11:43:28.600Z,1007.55
2023-05-22T11:44:28.686Z,1007.55
2023-05-22T11:45:28.585Z,1007.55
2023-05-22T11:46:28.648Z,1007.51
2023-05-22T11:47:28.877Z,1007.52
2023-05-22T11:48:28.566Z,1007.50
2023-05-22T11:49:28.550Z,1007.44
2023-05-22T11:50:41.648Z,1007.40
2023-05-22T11:51:29.537Z,1007.38
2023-05-22T11:52:28.878Z,1007.35
2023-05-22T11:53:28.515Z,1007.33
2023-05-22T11:54:28.518Z,1007.30
2023-05-22T11:55:28.508Z,1007.28
2023-05-22T11:56:29.006Z,1007.25
2023-05-22T11:57:28.520Z,1007.23
2023-05-22T11:58:28.558Z,1007.19
2023-05-22T11:59:28.528Z,1007.21
2023-05-22T12:00:28.568Z,1006.98
2023-05-22T12:01:28.440Z,1007.18
2023-05-22T12:02:28.487Z,1007.16
2023-05-22T12:03:28.513Z,1007.15
2023-05-22T12:04:28.464Z,1007.16
2023-05-22T12:05:28.404Z,1007.14